sensor_id;sensor_type;location;lat;lon;timestamp;P1;durP1;ratioP1;P2;durP2;ratioP2
67372;SDS011;54257;54.496;18.412;2023-04-25T00:01:40;4.60;;;2.90;;
67372;SDS011;54257;54.496;18.412;2023-04-25T00:04:07;3.10;;;2.60;;
67372;SDS011;54257;54.496;18.412;2023-04-25T00:06:34;3.30;;;3.00;;
67372;SDS011;54257;54.496;18.412;2023-04-25T00:09:04;3.10;;;2.80;;
67372;SDS011;54257;54.496;18.412;2023-04-25T00:11:34;4.20;;;2.60;;
67372;SDS011;54257;54.496;18.412;2023-04-25T00:14:01;3.80;;;3.00;;
67372;SDS011;54257;54.496;18.412;2023-04-25T00:16:29;3.60;;;2.60;;
67372;SDS011;54257;54.496;18.412;2023-04-25T00:19:00;3.30;;;3.00;;
67372;SDS011;54257;54.496;18.412;2023-04-25T00:21:28;3.50;;;2.90;;
67372;SDS011;54257;54.496;18.412;2023-04-25T00:23:55;3.00;;;2.60;;
67372;SDS011;54257;54.496;18.412;2023-04-25T00:26:22;3.00;;;2.50;;
67372;SDS011;54257;54.496;18.412;2023-04-25T00:28:49;3.50;;;3.20;;
67372;SDS011;54257;54.496;18.412;2023-04-25T00:31:16;3.30;;;2.70;;
67372;SDS011;54257;54.496;18.412;2023-04-25T00:33:43;3.10;;;2.90;;
67372;SDS011;54257;54.496;18.412;2023-04-25T00:36:10;3.80;;;2.70;;
67372;SDS011;54257;54.496;18.412;2023-04-25T00:38:37;2.80;;;2.60;;
67372;SDS011;54257;54.496;18.412;2023-04-25T00:41:05;2.70;;;2.50;;
67372;SDS011;54257;54.496;18.412;2023-04-25T00:43:34;3.30;;;2.40;;
67372;SDS011;54257;54.496;18.412;2023-04-25T00:46:03;3.30;;;3.00;;
67372;SDS011;54257;54.496;18.412;2023-04-25T00:48:30;2.70;;;2.50;;
67372;SDS011;54257;54.496;18.412;2023-04-25T00:50:58;3.30;;;3.00;;
67372;SDS011;54257;54.496;18.412;2023-04-25T00:53:26;3.00;;;2.50;;
67372;SDS011;54257;54.496;18.412;2023-04-25T00:55:54;3.50;;;3.20;;
67372;SDS011;54257;54.496;18.412;2023-04-25T00:58:22;2.80;;;2.60;;
67372;SDS011;54257;54.496;18.412;2023-04-25T01:00:49;3.30;;;3.00;;
67372;SDS011;54257;54.496;18.412;2023-04-25T01:03:18;3.00;;;2.80;;
67372;SDS011;54257;54.496;18.412;2023-04-25T01:05:48;3.70;;;3.30;;
67372;SDS011;54257;54.496;18.412;2023-04-25T01:08:15;3.50;;;3.20;;
67372;SDS011;54257;54.496;18.412;2023-04-25T01:10:42;3.90;;;3.50;;
67372;SDS011;54257;54.496;18.412;2023-04-25T01:13:09;4.00;;;3.70;;
67372;SDS011;54257;54.496;18.412;2023-04-25T01:15:37;3.30;;;3.10;;
67372;SDS011;54257;54.496;18.412;2023-04-25T01:18:04;3.60;;;3.30;;
67372;SDS011;54257;54.496;18.412;2023-04-25T01:20:32;4.60;;;3.70;;
67372;SDS011;54257;54.496;18.412;2023-04-25T01:23:00;3.80;;;3.40;;
67372;SDS011;54257;54.496;18.412;2023-04-25T01:25:32;3.60;;;3.30;;
67372;SDS011;54257;54.496;18.412;2023-04-25T01:28:00;5.30;;;3.50;;
67372;SDS011;54257;54.496;18.412;2023-04-25T01:30:27;4.30;;;3.60;;
67372;SDS011;54257;54.496;18.412;2023-04-25T01:32:57;4.50;;;4.00;;
67372;SDS011;54257;54.496;18.412;2023-04-25T01:35:26;3.60;;;3.30;;
67372;SDS011;54257;54.496;18.412;2023-04-25T01:37:54;4.30;;;3.90;;
67372;SDS011;54257;54.496;18.412;2023-04-25T01:40:22;4.10;;;3.70;;
67372;SDS011;54257;54.496;18.412;2023-04-25T01:42:50;10.30;;;4.10;;
67372;SDS011;54257;54.496;18.412;2023-04-25T01:45:18;4.20;;;3.80;;
67372;SDS011;54257;54.496;18.412;2023-04-25T01:47:45;4.40;;;4.00;;
67372;SDS011;54257;54.496;18.412;2023-04-25T01:50:16;4.40;;;4.00;;
67372;SDS011;54257;54.496;18.412;2023-04-25T01:52:44;5.00;;;4.60;;
67372;SDS011;54257;54.496;18.412;2023-04-25T01:55:11;5.00;;;4.50;;
67372;SDS011;54257;54.496;18.412;2023-04-25T01:57:38;4.90;;;4.40;;
67372;SDS011;54257;54.496;18.412;2023-04-25T02:00:06;5.10;;;4.20;;
67372;SDS011;54257;54.496;18.412;2023-04-25T02:02:35;4.70;;;3.80;;
67372;SDS011;54257;54.496;18.412;2023-04-25T02:05:02;5.40;;;4.80;;
67372;SDS011;54257;54.496;18.412;2023-04-25T02:07:29;4.20;;;3.90;;
67372;SDS011;54257;54.496;18.412;2023-04-25T02:09:56;5.60;;;5.10;;
67372;SDS011;54257;54.496;18.412;2023-04-25T02:12:24;5.40;;;4.80;;
67372;SDS011;54257;54.496;18.412;2023-04-25T02:14:52;5.70;;;4.90;;
67372;SDS011;54257;54.496;18.412;2023-04-25T02:17:19;5.00;;;4.50;;
67372;SDS011;54257;54.496;18.412;2023-04-25T02:19:47;4.90;;;4.50;;
67372;SDS011;54257;54.496;18.412;2023-04-25T02:22:14;6.00;;;4.80;;
67372;SDS011;54257;54.496;18.412;2023-04-25T02:24:42;5.20;;;4.80;;
67372;SDS011;54257;54.496;18.412;2023-04-25T02:27:08;5.40;;;4.90;;
67372;SDS011;54257;54.496;18.412;2023-04-25T02:29:36;7.20;;;4.60;;
67372;SDS011;54257;54.496;18.412;2023-04-25T02:32:03;4.60;;;4.20;;
67372;SDS011;54257;54.496;18.412;2023-04-25T02:34:30;5.20;;;4.80;;
67372;SDS011;54257;54.496;18.412;2023-04-25T02:36:57;5.10;;;4.60;;
67372;SDS011;54257;54.496;18.412;2023-04-25T02:39:24;4.40;;;3.90;;
67372;SDS011;54257;54.496;18.412;2023-04-25T02:41:53;4.80;;;4.40;;
67372;SDS011;54257;54.496;18.412;2023-04-25T02:44:20;5.40;;;4.90;;
67372;SDS011;54257;54.496;18.412;2023-04-25T02:46:47;5.60;;;4.90;;
67372;SDS011;54257;54.496;18.412;2023-04-25T02:49:14;5.80;;;5.20;;
67372;SDS011;54257;54.496;18.412;2023-04-25T02:51:41;5.70;;;5.20;;
67372;SDS011;54257;54.496;18.412;2023-04-25T02:54:08;5.40;;;4.90;;
67372;SDS011;54257;54.496;18.412;2023-04-25T02:56:35;5.40;;;5.00;;
67372;SDS011;54257;54.496;18.412;2023-04-25T02:59:02;5.80;;;5.30;;
67372;SDS011;54257;54.496;18.412;2023-04-25T03:01:29;6.00;;;5.50;;
67372;SDS011;54257;54.496;18.412;2023-04-25T03:03:56;5.80;;;5.30;;
67372;SDS011;54257;54.496;18.412;2023-04-25T03:06:23;6.80;;;5.40;;
67372;SDS011;54257;54.496;18.412;2023-04-25T03:08:50;6.20;;;5.60;;
67372;SDS011;54257;54.496;18.412;2023-04-25T03:11:17;7.20;;;5.60;;
67372;SDS011;54257;54.496;18.412;2023-04-25T03:13:44;6.90;;;5.60;;
67372;SDS011;54257;54.496;18.412;2023-04-25T03:16:11;7.40;;;5.50;;
67372;SDS011;54257;54.496;18.412;2023-04-25T03:18:38;5.50;;;5.00;;
67372;SDS011;54257;54.496;18.412;2023-04-25T03:21:05;5.10;;;4.70;;
67372;SDS011;54257;54.496;18.412;2023-04-25T03:23:32;5.10;;;4.50;;
67372;SDS011;54257;54.496;18.412;2023-04-25T03:25:59;4.90;;;4.40;;
67372;SDS011;54257;54.496;18.412;2023-04-25T03:28:27;5.10;;;4.70;;
67372;SDS011;54257;54.496;18.412;2023-04-25T03:30:54;5.00;;;4.60;;
67372;SDS011;54257;54.496;18.412;2023-04-25T03:33:22;4.40;;;4.00;;
67372;SDS011;54257;54.496;18.412;2023-04-25T03:35:49;4.40;;;4.00;;
67372;SDS011;54257;54.496;18.412;2023-04-25T03:38:16;5.30;;;4.40;;
67372;SDS011;54257;54.496;18.412;2023-04-25T03:40:43;5.30;;;4.30;;
67372;SDS011;54257;54.496;18.412;2023-04-25T03:43:10;4.70;;;3.90;;
67372;SDS011;54257;54.496;18.412;2023-04-25T03:45:37;4.70;;;4.30;;
67372;SDS011;54257;54.496;18.412;2023-04-25T03:48:04;4.70;;;4.30;;
67372;SDS011;54257;54.496;18.412;2023-04-25T03:50:32;4.30;;;3.90;;
67372;SDS011;54257;54.496;18.412;2023-04-25T03:52:59;5.30;;;4.60;;
67372;SDS011;54257;54.496;18.412;2023-04-25T03:55:26;4.70;;;4.30;;
67372;SDS011;54257;54.496;18.412;2023-04-25T03:57:53;4.60;;;3.90;;
67372;SDS011;54257;54.496;18.412;2023-04-25T04:00:20;4.70;;;4.00;;
67372;SDS011;54257;54.496;18.412;2023-04-25T04:02:47;5.50;;;4.40;;
67372;SDS011;54257;54.496;18.412;2023-04-25T04:05:14;4.80;;;4.30;;
67372;SDS011;54257;54.496;18.412;2023-04-25T04:07:41;5.70;;;4.80;;
67372;SDS011;54257;54.496;18.412;2023-04-25T04:10:09;4.30;;;3.60;;
67372;SDS011;54257;54.496;18.412;2023-04-25T04:12:37;4.40;;;4.00;;
67372;SDS011;54257;54.496;18.412;2023-04-25T04:15:05;5.50;;;4.60;;
67372;SDS011;54257;54.496;18.412;2023-04-25T04:17:33;4.80;;;4.30;;
67372;SDS011;54257;54.496;18.412;2023-04-25T04:20:00;5.00;;;4.50;;
67372;SDS011;54257;54.496;18.412;2023-04-25T04:22:27;4.80;;;4.40;;
67372;SDS011;54257;54.496;18.412;2023-04-25T04:24:55;4.60;;;4.10;;
67372;SDS011;54257;54.496;18.412;2023-04-25T04:27:23;5.10;;;4.60;;
67372;SDS011;54257;54.496;18.412;2023-04-25T04:29:50;5.80;;;4.90;;
67372;SDS011;54257;54.496;18.412;2023-04-25T04:32:20;5.10;;;4.60;;
67372;SDS011;54257;54.496;18.412;2023-04-25T04:34:47;5.10;;;4.60;;
67372;SDS011;54257;54.496;18.412;2023-04-25T04:37:15;4.40;;;4.00;;
67372;SDS011;54257;54.496;18.412;2023-04-25T04:39:42;5.60;;;5.00;;
67372;SDS011;54257;54.496;18.412;2023-04-25T04:42:09;5.70;;;4.90;;
67372;SDS011;54257;54.496;18.412;2023-04-25T04:44:38;6.50;;;5.50;;
67372;SDS011;54257;54.496;18.412;2023-04-25T04:47:05;5.30;;;4.80;;
67372;SDS011;54257;54.496;18.412;2023-04-25T04:49:33;5.40;;;4.90;;
67372;SDS011;54257;54.496;18.412;2023-04-25T04:52:00;5.80;;;5.20;;
67372;SDS011;54257;54.496;18.412;2023-04-25T04:54:29;6.40;;;5.10;;
67372;SDS011;54257;54.496;18.412;2023-04-25T04:57:07;5.80;;;5.30;;
67372;SDS011;54257;54.496;18.412;2023-04-25T04:59:34;5.30;;;4.80;;
67372;SDS011;54257;54.496;18.412;2023-04-25T05:02:01;5.30;;;4.80;;
67372;SDS011;54257;54.496;18.412;2023-04-25T05:04:29;5.10;;;4.60;;
67372;SDS011;54257;54.496;18.412;2023-04-25T05:06:56;6.00;;;4.70;;
67372;SDS011;54257;54.496;18.412;2023-04-25T05:09:23;6.00;;;5.10;;
67372;SDS011;54257;54.496;18.412;2023-04-25T05:11:52;6.80;;;4.90;;
67372;SDS011;54257;54.496;18.412;2023-04-25T05:14:19;8.10;;;5.60;;
67372;SDS011;54257;54.496;18.412;2023-04-25T05:16:46;6.60;;;5.00;;
67372;SDS011;54257;54.496;18.412;2023-04-25T05:19:13;5.10;;;4.40;;
67372;SDS011;54257;54.496;18.412;2023-04-25T05:21:41;5.30;;;4.70;;
67372;SDS011;54257;54.496;18.412;2023-04-25T05:24:10;6.10;;;4.80;;
67372;SDS011;54257;54.496;18.412;2023-04-25T05:26:37;4.80;;;4.40;;
67372;SDS011;54257;54.496;18.412;2023-04-25T05:29:04;6.70;;;4.40;;
67372;SDS011;54257;54.496;18.412;2023-04-25T05:31:32;5.00;;;4.50;;
67372;SDS011;54257;54.496;18.412;2023-04-25T05:33:59;5.40;;;4.10;;
67372;SDS011;54257;54.496;18.412;2023-04-25T05:36:26;4.50;;;4.00;;
67372;SDS011;54257;54.496;18.412;2023-04-25T05:38:57;5.90;;;4.20;;
67372;SDS011;54257;54.496;18.412;2023-04-25T05:41:24;5.40;;;4.20;;
67372;SDS011;54257;54.496;18.412;2023-04-25T05:43:52;5.20;;;3.70;;
67372;SDS011;54257;54.496;18.412;2023-04-25T05:46:19;4.50;;;3.80;;
67372;SDS011;54257;54.496;18.412;2023-04-25T05:48:47;7.20;;;4.20;;
67372;SDS011;54257;54.496;18.412;2023-04-25T05:51:14;4.50;;;4.10;;
67372;SDS011;54257;54.496;18.412;2023-04-25T05:53:41;5.10;;;4.00;;
67372;SDS011;54257;54.496;18.412;2023-04-25T05:56:08;5.70;;;4.00;;
67372;SDS011;54257;54.496;18.412;2023-04-25T05:58:35;4.80;;;3.60;;
67372;SDS011;54257;54.496;18.412;2023-04-25T06:01:02;4.50;;;3.80;;
67372;SDS011;54257;54.496;18.412;2023-04-25T06:03:30;6.00;;;3.60;;
67372;SDS011;54257;54.496;18.412;2023-04-25T06:05:57;5.60;;;3.60;;
67372;SDS011;54257;54.496;18.412;2023-04-25T06:08:24;4.40;;;3.50;;
67372;SDS011;54257;54.496;18.412;2023-04-25T06:10:51;6.10;;;3.80;;
67372;SDS011;54257;54.496;18.412;2023-04-25T06:13:18;4.80;;;3.90;;
67372;SDS011;54257;54.496;18.412;2023-04-25T06:15:45;6.80;;;4.50;;
67372;SDS011;54257;54.496;18.412;2023-04-25T06:18:12;4.50;;;3.60;;
67372;SDS011;54257;54.496;18.412;2023-04-25T06:20:39;8.80;;;4.60;;
67372;SDS011;54257;54.496;18.412;2023-04-25T06:23:06;4.40;;;3.60;;
67372;SDS011;54257;54.496;18.412;2023-04-25T06:25:33;7.30;;;4.00;;
67372;SDS011;54257;54.496;18.412;2023-04-25T06:28:00;4.40;;;3.70;;
67372;SDS011;54257;54.496;18.412;2023-04-25T06:30:27;5.10;;;3.90;;
67372;SDS011;54257;54.496;18.412;2023-04-25T06:32:54;4.70;;;4.00;;
67372;SDS011;54257;54.496;18.412;2023-04-25T06:35:22;4.30;;;3.90;;
67372;SDS011;54257;54.496;18.412;2023-04-25T06:37:49;3.80;;;3.40;;
67372;SDS011;54257;54.496;18.412;2023-04-25T06:40:16;4.90;;;3.70;;
67372;SDS011;54257;54.496;18.412;2023-04-25T06:42:44;4.40;;;4.00;;
67372;SDS011;54257;54.496;18.412;2023-04-25T06:45:16;5.80;;;4.10;;
67372;SDS011;54257;54.496;18.412;2023-04-25T06:47:44;4.60;;;3.90;;
67372;SDS011;54257;54.496;18.412;2023-04-25T06:50:13;4.20;;;3.80;;
67372;SDS011;54257;54.496;18.412;2023-04-25T06:52:40;5.40;;;3.40;;
67372;SDS011;54257;54.496;18.412;2023-04-25T06:55:08;5.30;;;3.50;;
67372;SDS011;54257;54.496;18.412;2023-04-25T06:57:38;4.80;;;3.90;;
67372;SDS011;54257;54.496;18.412;2023-04-25T07:00:06;4.70;;;3.40;;
67372;SDS011;54257;54.496;18.412;2023-04-25T07:02:35;3.50;;;3.20;;
67372;SDS011;54257;54.496;18.412;2023-04-25T07:05:03;3.90;;;3.50;;
67372;SDS011;54257;54.496;18.412;2023-04-25T07:07:33;3.90;;;3.40;;
67372;SDS011;54257;54.496;18.412;2023-04-25T07:10:01;4.30;;;3.20;;
67372;SDS011;54257;54.496;18.412;2023-04-25T07:12:28;3.80;;;3.40;;
67372;SDS011;54257;54.496;18.412;2023-04-25T07:14:55;4.40;;;3.30;;
67372;SDS011;54257;54.496;18.412;2023-04-25T07:17:22;3.40;;;3.10;;
67372;SDS011;54257;54.496;18.412;2023-04-25T07:19:49;3.60;;;2.90;;
67372;SDS011;54257;54.496;18.412;2023-04-25T07:22:16;3.40;;;2.80;;
67372;SDS011;54257;54.496;18.412;2023-04-25T07:24:43;4.00;;;3.20;;
67372;SDS011;54257;54.496;18.412;2023-04-25T07:27:15;5.00;;;3.10;;
67372;SDS011;54257;54.496;18.412;2023-04-25T07:29:41;5.10;;;3.20;;
67372;SDS011;54257;54.496;18.412;2023-04-25T07:32:09;3.60;;;3.30;;
67372;SDS011;54257;54.496;18.412;2023-04-25T07:34:38;4.30;;;3.10;;
67372;SDS011;54257;54.496;18.412;2023-04-25T07:37:06;3.50;;;2.60;;
67372;SDS011;54257;54.496;18.412;2023-04-25T07:39:33;4.00;;;2.60;;
67372;SDS011;54257;54.496;18.412;2023-04-25T07:42:00;2.70;;;2.50;;
67372;SDS011;54257;54.496;18.412;2023-04-25T07:44:29;2.70;;;2.50;;
67372;SDS011;54257;54.496;18.412;2023-04-25T07:46:57;3.00;;;2.80;;
67372;SDS011;54257;54.496;18.412;2023-04-25T07:49:25;4.00;;;2.70;;
67372;SDS011;54257;54.496;18.412;2023-04-25T07:51:52;4.90;;;2.60;;
67372;SDS011;54257;54.496;18.412;2023-04-25T07:54:19;3.00;;;2.70;;
67372;SDS011;54257;54.496;18.412;2023-04-25T07:56:46;4.10;;;2.40;;
67372;SDS011;54257;54.496;18.412;2023-04-25T07:59:13;2.20;;;2.00;;
67372;SDS011;54257;54.496;18.412;2023-04-25T08:01:39;2.40;;;2.00;;
67372;SDS011;54257;54.496;18.412;2023-04-25T08:04:07;3.30;;;2.50;;
67372;SDS011;54257;54.496;18.412;2023-04-25T08:06:33;3.40;;;2.40;;
67372;SDS011;54257;54.496;18.412;2023-04-25T08:09:01;2.70;;;2.10;;
67372;SDS011;54257;54.496;18.412;2023-04-25T08:11:29;2.60;;;1.90;;
67372;SDS011;54257;54.496;18.412;2023-04-25T08:13:56;2.50;;;2.00;;
67372;SDS011;54257;54.496;18.412;2023-04-25T08:16:23;2.30;;;2.10;;
67372;SDS011;54257;54.496;18.412;2023-04-25T08:18:50;3.20;;;1.60;;
67372;SDS011;54257;54.496;18.412;2023-04-25T08:21:18;2.50;;;2.20;;
67372;SDS011;54257;54.496;18.412;2023-04-25T08:23:45;2.20;;;1.70;;
67372;SDS011;54257;54.496;18.412;2023-04-25T08:26:12;2.80;;;1.70;;
67372;SDS011;54257;54.496;18.412;2023-04-25T08:28:39;2.70;;;1.90;;
67372;SDS011;54257;54.496;18.412;2023-04-25T08:31:06;1.90;;;1.80;;
67372;SDS011;54257;54.496;18.412;2023-04-25T08:33:33;2.50;;;1.60;;
67372;SDS011;54257;54.496;18.412;2023-04-25T08:36:00;2.40;;;2.20;;
67372;SDS011;54257;54.496;18.412;2023-04-25T08:38:27;2.70;;;2.40;;
67372;SDS011;54257;54.496;18.412;2023-04-25T08:40:54;4.20;;;2.30;;
67372;SDS011;54257;54.496;18.412;2023-04-25T08:43:23;3.90;;;2.30;;
67372;SDS011;54257;54.496;18.412;2023-04-25T08:45:53;2.20;;;1.90;;
67372;SDS011;54257;54.496;18.412;2023-04-25T08:48:21;2.70;;;2.00;;
67372;SDS011;54257;54.496;18.412;2023-04-25T08:50:52;4.20;;;2.10;;
67372;SDS011;54257;54.496;18.412;2023-04-25T08:53:27;3.40;;;2.20;;
67372;SDS011;54257;54.496;18.412;2023-04-25T08:56:00;1.60;;;1.40;;
67372;SDS011;54257;54.496;18.412;2023-04-25T08:58:30;2.90;;;1.90;;
67372;SDS011;54257;54.496;18.412;2023-04-25T09:00:59;4.00;;;1.90;;
67372;SDS011;54257;54.496;18.412;2023-04-25T09:03:26;2.50;;;1.90;;
67372;SDS011;54257;54.496;18.412;2023-04-25T09:05:54;2.00;;;1.90;;
67372;SDS011;54257;54.496;18.412;2023-04-25T09:08:22;3.50;;;1.70;;
67372;SDS011;54257;54.496;18.412;2023-04-25T09:10:49;2.40;;;1.80;;
67372;SDS011;54257;54.496;18.412;2023-04-25T09:13:23;1.80;;;1.70;;
67372;SDS011;54257;54.496;18.412;2023-04-25T09:15:54;1.90;;;1.50;;
67372;SDS011;54257;54.496;18.412;2023-04-25T09:20:51;3.00;;;1.80;;
67372;SDS011;54257;54.496;18.412;2023-04-25T09:23:23;5.10;;;1.80;;
67372;SDS011;54257;54.496;18.412;2023-04-25T09:25:51;2.00;;;1.60;;
67372;SDS011;54257;54.496;18.412;2023-04-25T09:28:23;1.60;;;1.50;;
67372;SDS011;54257;54.496;18.412;2023-04-25T09:30:56;1.80;;;1.40;;
67372;SDS011;54257;54.496;18.412;2023-04-25T09:33:33;1.70;;;1.20;;
67372;SDS011;54257;54.496;18.412;2023-04-25T09:36:04;1.70;;;1.60;;
67372;SDS011;54257;54.496;18.412;2023-04-25T09:38:40;2.00;;;1.60;;
67372;SDS011;54257;54.496;18.412;2023-04-25T09:41:09;2.70;;;1.60;;
67372;SDS011;54257;54.496;18.412;2023-04-25T09:43:37;1.50;;;1.40;;
67372;SDS011;54257;54.496;18.412;2023-04-25T09:46:09;1.80;;;1.70;;
67372;SDS011;54257;54.496;18.412;2023-04-25T09:48:37;1.70;;;1.50;;
67372;SDS011;54257;54.496;18.412;2023-04-25T09:51:11;1.50;;;1.40;;
67372;SDS011;54257;54.496;18.412;2023-04-25T09:53:43;1.20;;;1.20;;
67372;SDS011;54257;54.496;18.412;2023-04-25T09:56:13;1.50;;;1.40;;
67372;SDS011;54257;54.496;18.412;2023-04-25T09:58:40;1.70;;;1.60;;
67372;SDS011;54257;54.496;18.412;2023-04-25T10:01:11;2.40;;;1.40;;
67372;SDS011;54257;54.496;18.412;2023-04-25T10:03:38;1.30;;;1.20;;
67372;SDS011;54257;54.496;18.412;2023-04-25T10:06:17;1.60;;;1.40;;
67372;SDS011;54257;54.496;18.412;2023-04-25T10:08:46;2.80;;;1.80;;
67372;SDS011;54257;54.496;18.412;2023-04-25T10:11:17;2.30;;;1.30;;
67372;SDS011;54257;54.496;18.412;2023-04-25T10:13:44;1.70;;;1.60;;
67372;SDS011;54257;54.496;18.412;2023-04-25T10:16:14;2.30;;;1.50;;
67372;SDS011;54257;54.496;18.412;2023-04-25T10:18:42;2.80;;;1.70;;
67372;SDS011;54257;54.496;18.412;2023-04-25T10:21:09;3.60;;;1.90;;
67372;SDS011;54257;54.496;18.412;2023-04-25T10:23:37;3.50;;;2.00;;
67372;SDS011;54257;54.496;18.412;2023-04-25T10:26:05;1.50;;;1.40;;
67372;SDS011;54257;54.496;18.412;2023-04-25T10:28:54;1.70;;;1.60;;
67372;SDS011;54257;54.496;18.412;2023-04-25T10:31:32;2.00;;;1.30;;
67372;SDS011;54257;54.496;18.412;2023-04-25T10:33:59;2.80;;;2.00;;
67372;SDS011;54257;54.496;18.412;2023-04-25T10:36:27;2.10;;;1.90;;
67372;SDS011;54257;54.496;18.412;2023-04-25T10:39:02;2.00;;;1.80;;
67372;SDS011;54257;54.496;18.412;2023-04-25T10:41:45;3.40;;;2.00;;
67372;SDS011;54257;54.496;18.412;2023-04-25T10:44:13;2.40;;;1.80;;
67372;SDS011;54257;54.496;18.412;2023-04-25T10:46:41;2.70;;;1.60;;
67372;SDS011;54257;54.496;18.412;2023-04-25T10:49:28;5.40;;;3.40;;
67372;SDS011;54257;54.496;18.412;2023-04-25T10:52:14;11.00;;;5.70;;
67372;SDS011;54257;54.496;18.412;2023-04-25T10:54:51;3.20;;;2.10;;
67372;SDS011;54257;54.496;18.412;2023-04-25T10:57:30;2.20;;;2.00;;
67372;SDS011;54257;54.496;18.412;2023-04-25T11:00:19;2.10;;;1.90;;
67372;SDS011;54257;54.496;18.412;2023-04-25T11:02:53;11.90;;;5.80;;
67372;SDS011;54257;54.496;18.412;2023-04-25T11:05:31;5.90;;;4.00;;
67372;SDS011;54257;54.496;18.412;2023-04-25T11:08:00;3.50;;;2.40;;
67372;SDS011;54257;54.496;18.412;2023-04-25T11:10:28;4.90;;;2.00;;
67372;SDS011;54257;54.496;18.412;2023-04-25T11:12:57;2.50;;;2.20;;
67372;SDS011;54257;54.496;18.412;2023-04-25T11:15:24;2.40;;;1.60;;
67372;SDS011;54257;54.496;18.412;2023-04-25T11:17:52;5.10;;;2.50;;
67372;SDS011;54257;54.496;18.412;2023-04-25T11:20:21;2.60;;;2.00;;
67372;SDS011;54257;54.496;18.412;2023-04-25T11:22:52;4.40;;;1.90;;
67372;SDS011;54257;54.496;18.412;2023-04-25T11:25:19;2.60;;;1.80;;
67372;SDS011;54257;54.496;18.412;2023-04-25T11:27:53;2.70;;;1.90;;
67372;SDS011;54257;54.496;18.412;2023-04-25T11:30:21;4.10;;;2.00;;
67372;SDS011;54257;54.496;18.412;2023-04-25T11:32:49;4.40;;;2.00;;
67372;SDS011;54257;54.496;18.412;2023-04-25T11:35:16;2.70;;;2.10;;
67372;SDS011;54257;54.496;18.412;2023-04-25T11:37:44;3.60;;;2.20;;
67372;SDS011;54257;54.496;18.412;2023-04-25T11:40:12;3.30;;;1.90;;
67372;SDS011;54257;54.496;18.412;2023-04-25T11:42:39;2.50;;;1.80;;
67372;SDS011;54257;54.496;18.412;2023-04-25T11:45:11;5.00;;;2.30;;
67372;SDS011;54257;54.496;18.412;2023-04-25T11:47:38;5.60;;;2.40;;
67372;SDS011;54257;54.496;18.412;2023-04-25T11:50:06;3.10;;;1.80;;
67372;SDS011;54257;54.496;18.412;2023-04-25T11:52:35;4.50;;;2.20;;
67372;SDS011;54257;54.496;18.412;2023-04-25T11:55:12;5.20;;;2.40;;
67372;SDS011;54257;54.496;18.412;2023-04-25T11:57:40;4.90;;;2.30;;
67372;SDS011;54257;54.496;18.412;2023-04-25T12:00:12;4.30;;;2.10;;
67372;SDS011;54257;54.496;18.412;2023-04-25T12:02:45;6.30;;;2.30;;
67372;SDS011;54257;54.496;18.412;2023-04-25T12:05:14;2.00;;;1.80;;
67372;SDS011;54257;54.496;18.412;2023-04-25T12:07:43;4.20;;;3.20;;
67372;SDS011;54257;54.496;18.412;2023-04-25T12:10:11;5.40;;;2.90;;
67372;SDS011;54257;54.496;18.412;2023-04-25T12:12:42;6.20;;;2.60;;
67372;SDS011;54257;54.496;18.412;2023-04-25T12:15:15;5.50;;;2.40;;
67372;SDS011;54257;54.496;18.412;2023-04-25T12:17:47;3.80;;;2.20;;
67372;SDS011;54257;54.496;18.412;2023-04-25T12:20:19;4.60;;;2.20;;
67372;SDS011;54257;54.496;18.412;2023-04-25T12:22:58;4.80;;;2.50;;
67372;SDS011;54257;54.496;18.412;2023-04-25T12:28:09;6.00;;;3.70;;
67372;SDS011;54257;54.496;18.412;2023-04-25T12:30:52;6.70;;;3.20;;
67372;SDS011;54257;54.496;18.412;2023-04-25T12:33:28;5.30;;;2.50;;
67372;SDS011;54257;54.496;18.412;2023-04-25T12:35:58;5.70;;;2.80;;
67372;SDS011;54257;54.496;18.412;2023-04-25T12:38:30;3.40;;;2.50;;
67372;SDS011;54257;54.496;18.412;2023-04-25T12:40:58;5.00;;;2.50;;
67372;SDS011;54257;54.496;18.412;2023-04-25T12:43:25;4.40;;;2.10;;
67372;SDS011;54257;54.496;18.412;2023-04-25T12:45:53;4.10;;;3.00;;
67372;SDS011;54257;54.496;18.412;2023-04-25T12:48:22;2.70;;;2.00;;
67372;SDS011;54257;54.496;18.412;2023-04-25T12:50:49;3.90;;;2.30;;
67372;SDS011;54257;54.496;18.412;2023-04-25T12:53:21;2.90;;;2.10;;
67372;SDS011;54257;54.496;18.412;2023-04-25T12:55:50;3.50;;;3.00;;
67372;SDS011;54257;54.496;18.412;2023-04-25T12:58:18;3.10;;;2.50;;
67372;SDS011;54257;54.496;18.412;2023-04-25T13:00:46;4.30;;;1.80;;
67372;SDS011;54257;54.496;18.412;2023-04-25T13:03:16;9.10;;;2.00;;
67372;SDS011;54257;54.496;18.412;2023-04-25T13:05:45;3.20;;;1.80;;
67372;SDS011;54257;54.496;18.412;2023-04-25T13:08:12;3.70;;;2.00;;
67372;SDS011;54257;54.496;18.412;2023-04-25T13:10:39;3.70;;;1.80;;
67372;SDS011;54257;54.496;18.412;2023-04-25T13:13:06;3.80;;;2.00;;
67372;SDS011;54257;54.496;18.412;2023-04-25T13:15:33;3.60;;;1.80;;
67372;SDS011;54257;54.496;18.412;2023-04-25T13:18:02;4.10;;;2.80;;
67372;SDS011;54257;54.496;18.412;2023-04-25T13:20:31;3.50;;;1.70;;
67372;SDS011;54257;54.496;18.412;2023-04-25T13:23:00;3.60;;;2.30;;
67372;SDS011;54257;54.496;18.412;2023-04-25T13:25:27;3.90;;;1.80;;
67372;SDS011;54257;54.496;18.412;2023-04-25T13:27:54;6.20;;;2.20;;
67372;SDS011;54257;54.496;18.412;2023-04-25T13:30:21;6.70;;;2.00;;
67372;SDS011;54257;54.496;18.412;2023-04-25T13:32:48;5.10;;;1.90;;
67372;SDS011;54257;54.496;18.412;2023-04-25T13:35:16;8.70;;;2.20;;
67372;SDS011;54257;54.496;18.412;2023-04-25T13:37:43;4.90;;;2.40;;
67372;SDS011;54257;54.496;18.412;2023-04-25T13:40:10;4.80;;;1.70;;
67372;SDS011;54257;54.496;18.412;2023-04-25T13:42:39;7.80;;;2.00;;
67372;SDS011;54257;54.496;18.412;2023-04-25T13:45:07;5.00;;;2.00;;
67372;SDS011;54257;54.496;18.412;2023-04-25T13:47:34;20.90;;;3.90;;
67372;SDS011;54257;54.496;18.412;2023-04-25T13:50:02;5.40;;;2.00;;
67372;SDS011;54257;54.496;18.412;2023-04-25T13:52:30;7.10;;;2.10;;
67372;SDS011;54257;54.496;18.412;2023-04-25T13:54:57;6.00;;;2.00;;
67372;SDS011;54257;54.496;18.412;2023-04-25T13:57:25;7.90;;;2.50;;
67372;SDS011;54257;54.496;18.412;2023-04-25T13:59:52;5.50;;;2.40;;
67372;SDS011;54257;54.496;18.412;2023-04-25T14:02:20;6.00;;;2.30;;
67372;SDS011;54257;54.496;18.412;2023-04-25T14:04:47;5.70;;;2.30;;
67372;SDS011;54257;54.496;18.412;2023-04-25T14:07:14;5.40;;;2.40;;
67372;SDS011;54257;54.496;18.412;2023-04-25T14:09:44;5.00;;;2.20;;
67372;SDS011;54257;54.496;18.412;2023-04-25T14:12:11;7.00;;;2.70;;
67372;SDS011;54257;54.496;18.412;2023-04-25T14:14:39;7.30;;;2.50;;
67372;SDS011;54257;54.496;18.412;2023-04-25T14:17:05;6.00;;;3.10;;
67372;SDS011;54257;54.496;18.412;2023-04-25T14:19:33;6.00;;;2.60;;
67372;SDS011;54257;54.496;18.412;2023-04-25T14:22:00;6.70;;;2.30;;
67372;SDS011;54257;54.496;18.412;2023-04-25T14:24:27;6.40;;;2.90;;
67372;SDS011;54257;54.496;18.412;2023-04-25T14:26:54;6.70;;;2.80;;
67372;SDS011;54257;54.496;18.412;2023-04-25T14:29:22;12.80;;;3.40;;
67372;SDS011;54257;54.496;18.412;2023-04-25T14:31:49;7.50;;;3.30;;
67372;SDS011;54257;54.496;18.412;2023-04-25T14:34:16;10.40;;;3.40;;
67372;SDS011;54257;54.496;18.412;2023-04-25T14:36:43;8.70;;;2.90;;
67372;SDS011;54257;54.496;18.412;2023-04-25T14:39:10;9.10;;;3.50;;
67372;SDS011;54257;54.496;18.412;2023-04-25T14:41:39;6.30;;;2.80;;
67372;SDS011;54257;54.496;18.412;2023-04-25T14:44:06;8.70;;;3.60;;
67372;SDS011;54257;54.496;18.412;2023-04-25T14:46:33;8.70;;;3.00;;